sensor_id;sensor_type;location;lat;lon;timestamp;P1;durP1;ratioP1;P2;durP2;ratioP2
59599;SDS011;61855;55.030;73.326;2022-07-21T00:00:32;37.70;;;25.38;;
59599;SDS011;61855;55.030;73.326;2022-07-21T00:03:01;35.85;;;24.42;;
59599;SDS011;61855;55.030;73.326;2022-07-21T00:05:30;35.53;;;25.20;;
59599;SDS011;61855;55.030;73.326;2022-07-21T00:07:56;36.85;;;24.63;;
59599;SDS011;61855;55.030;73.326;2022-07-21T00:10:24;40.20;;;24.45;;
59599;SDS011;61855;55.030;73.326;2022-07-21T00:12:56;36.80;;;25.43;;
59599;SDS011;61855;55.030;73.326;2022-07-21T00:15:24;33.05;;;23.42;;
59599;SDS011;61855;55.030;73.326;2022-07-21T00:17:53;35.47;;;25.33;;
59599;SDS011;61855;55.030;73.326;2022-07-21T00:20:19;39.35;;;25.90;;
59599;SDS011;61855;55.030;73.326;2022-07-21T00:22:49;35.28;;;24.45;;
59599;SDS011;61855;55.030;73.326;2022-07-21T00:25:16;37.42;;;23.58;;
59599;SDS011;61855;55.030;73.326;2022-07-21T00:27:52;38.22;;;25.40;;
59599;SDS011;61855;55.030;73.326;2022-07-21T00:30:18;37.83;;;24.55;;
59599;SDS011;61855;55.030;73.326;2022-07-21T00:32:44;38.67;;;24.23;;
59599;SDS011;61855;55.030;73.326;2022-07-21T00:35:11;34.97;;;24.15;;
59599;SDS011;61855;55.030;73.326;2022-07-21T00:37:37;38.88;;;23.67;;
59599;SDS011;61855;55.030;73.326;2022-07-21T00:40:13;32.47;;;24.05;;
59599;SDS011;61855;55.030;73.326;2022-07-21T00:42:41;36.80;;;24.27;;
59599;SDS011;61855;55.030;73.326;2022-07-21T00:45:11;29.92;;;20.38;;
59599;SDS011;61855;55.030;73.326;2022-07-21T00:47:37;34.00;;;23.52;;
59599;SDS011;61855;55.030;73.326;2022-07-21T00:50:07;30.95;;;23.40;;
59599;SDS011;61855;55.030;73.326;2022-07-21T00:52:38;40.38;;;24.55;;
59599;SDS011;61855;55.030;73.326;2022-07-21T00:55:07;33.30;;;22.85;;
59599;SDS011;61855;55.030;73.326;2022-07-21T00:57:37;34.80;;;23.67;;
59599;SDS011;61855;55.030;73.326;2022-07-21T01:00:04;32.90;;;23.13;;
59599;SDS011;61855;55.030;73.326;2022-07-21T01:02:36;33.22;;;22.90;;
59599;SDS011;61855;55.030;73.326;2022-07-21T01:05:06;32.60;;;23.23;;
59599;SDS011;61855;55.030;73.326;2022-07-21T01:07:38;32.22;;;23.45;;
59599;SDS011;61855;55.030;73.326;2022-07-21T01:10:06;30.08;;;22.02;;
59599;SDS011;61855;55.030;73.326;2022-07-21T01:12:36;31.55;;;22.60;;
59599;SDS011;61855;55.030;73.326;2022-07-21T01:15:04;31.20;;;23.70;;
59599;SDS011;61855;55.030;73.326;2022-07-21T01:17:31;34.65;;;22.60;;
59599;SDS011;61855;55.030;73.326;2022-07-21T01:20:09;36.47;;;24.02;;
59599;SDS011;61855;55.030;73.326;2022-07-21T01:22:38;32.35;;;23.02;;
59599;SDS011;61855;55.030;73.326;2022-07-21T01:25:10;32.10;;;21.63;;
59599;SDS011;61855;55.030;73.326;2022-07-21T01:27:37;31.30;;;21.00;;
59599;SDS011;61855;55.030;73.326;2022-07-21T01:30:04;28.27;;;20.42;;
59599;SDS011;61855;55.030;73.326;2022-07-21T01:32:35;31.60;;;22.40;;
59599;SDS011;61855;55.030;73.326;2022-07-21T01:35:04;27.83;;;20.10;;
59599;SDS011;61855;55.030;73.326;2022-07-21T01:37:35;29.70;;;21.85;;
59599;SDS011;61855;55.030;73.326;2022-07-21T01:40:03;27.38;;;21.05;;
59599;SDS011;61855;55.030;73.326;2022-07-21T01:45:14;27.02;;;20.38;;
59599;SDS011;61855;55.030;73.326;2022-07-21T01:47:41;33.13;;;22.02;;
59599;SDS011;61855;55.030;73.326;2022-07-21T01:50:07;30.73;;;21.27;;
59599;SDS011;61855;55.030;73.326;2022-07-21T01:52:33;26.70;;;20.30;;
59599;SDS011;61855;55.030;73.326;2022-07-21T01:54:59;28.88;;;20.38;;
59599;SDS011;61855;55.030;73.326;2022-07-21T01:57:25;30.73;;;19.63;;
59599;SDS011;61855;55.030;73.326;2022-07-21T01:59:52;28.77;;;20.15;;
59599;SDS011;61855;55.030;73.326;2022-07-21T02:02:18;31.75;;;20.65;;
59599;SDS011;61855;55.030;73.326;2022-07-21T02:04:49;29.17;;;19.95;;
59599;SDS011;61855;55.030;73.326;2022-07-21T02:07:15;30.48;;;21.05;;
59599;SDS011;61855;55.030;73.326;2022-07-21T02:09:42;27.65;;;21.13;;
59599;SDS011;61855;55.030;73.326;2022-07-21T02:12:08;32.80;;;21.25;;
59599;SDS011;61855;55.030;73.326;2022-07-21T02:14:35;33.92;;;20.90;;
59599;SDS011;61855;55.030;73.326;2022-07-21T02:17:07;32.20;;;22.15;;
59599;SDS011;61855;55.030;73.326;2022-07-21T02:19:33;33.30;;;22.80;;
59599;SDS011;61855;55.030;73.326;2022-07-21T02:21:59;38.38;;;24.27;;
59599;SDS011;61855;55.030;73.326;2022-07-21T02:24:25;43.15;;;23.60;;
59599;SDS011;61855;55.030;73.326;2022-07-21T02:26:51;41.42;;;26.88;;
59599;SDS011;61855;55.030;73.326;2022-07-21T02:29:17;48.15;;;28.50;;
59599;SDS011;61855;55.030;73.326;2022-07-21T02:31:43;48.75;;;28.83;;
59599;SDS011;61855;55.030;73.326;2022-07-21T02:34:09;46.35;;;29.70;;
59599;SDS011;61855;55.030;73.326;2022-07-21T02:36:35;48.95;;;29.98;;
59599;SDS011;61855;55.030;73.326;2022-07-21T02:39:01;44.33;;;28.27;;
59599;SDS011;61855;55.030;73.326;2022-07-21T02:41:27;54.80;;;27.77;;
59599;SDS011;61855;55.030;73.326;2022-07-21T02:43:53;61.65;;;28.85;;
59599;SDS011;61855;55.030;73.326;2022-07-21T02:46:29;63.97;;;31.33;;
59599;SDS011;61855;55.030;73.326;2022-07-21T02:48:55;46.47;;;29.40;;
59599;SDS011;61855;55.030;73.326;2022-07-21T02:51:21;45.80;;;28.98;;
59599;SDS011;61855;55.030;73.326;2022-07-21T02:53:47;37.65;;;24.50;;
59599;SDS011;61855;55.030;73.326;2022-07-21T02:56:14;39.33;;;25.00;;
59599;SDS011;61855;55.030;73.326;2022-07-21T02:58:40;41.50;;;26.30;;
59599;SDS011;61855;55.030;73.326;2022-07-21T03:01:06;45.50;;;22.77;;
59599;SDS011;61855;55.030;73.326;2022-07-21T03:03:34;34.65;;;22.23;;
59599;SDS011;61855;55.030;73.326;2022-07-21T03:06:01;39.00;;;22.55;;
59599;SDS011;61855;55.030;73.326;2022-07-21T03:08:28;34.13;;;21.88;;
59599;SDS011;61855;55.030;73.326;2022-07-21T03:10:57;27.83;;;20.08;;
59599;SDS011;61855;55.030;73.326;2022-07-21T03:13:23;27.65;;;18.83;;
59599;SDS011;61855;55.030;73.326;2022-07-21T03:15:53;25.48;;;19.27;;
59599;SDS011;61855;55.030;73.326;2022-07-21T03:18:23;27.98;;;18.25;;
59599;SDS011;61855;55.030;73.326;2022-07-21T03:20:49;27.55;;;18.77;;
59599;SDS011;61855;55.030;73.326;2022-07-21T03:23:15;26.58;;;18.30;;
59599;SDS011;61855;55.030;73.326;2022-07-21T03:25:41;32.30;;;19.55;;
59599;SDS011;61855;55.030;73.326;2022-07-21T03:28:08;26.23;;;18.98;;
59599;SDS011;61855;55.030;73.326;2022-07-21T03:30:38;29.38;;;19.83;;
59599;SDS011;61855;55.030;73.326;2022-07-21T03:33:04;28.13;;;18.45;;
59599;SDS011;61855;55.030;73.326;2022-07-21T03:35:30;29.92;;;19.60;;
59599;SDS011;61855;55.030;73.326;2022-07-21T03:37:58;35.28;;;19.45;;
59599;SDS011;61855;55.030;73.326;2022-07-21T03:40:35;39.42;;;20.60;;
59599;SDS011;61855;55.030;73.326;2022-07-21T03:43:04;32.75;;;21.15;;
59599;SDS011;61855;55.030;73.326;2022-07-21T03:45:32;33.03;;;21.35;;
59599;SDS011;61855;55.030;73.326;2022-07-21T03:48:02;29.05;;;19.67;;
59599;SDS011;61855;55.030;73.326;2022-07-21T03:50:30;35.95;;;21.50;;
59599;SDS011;61855;55.030;73.326;2022-07-21T03:52:56;63.05;;;27.55;;
59599;SDS011;61855;55.030;73.326;2022-07-21T03:55:23;134.93;;;39.33;;
59599;SDS011;61855;55.030;73.326;2022-07-21T03:57:53;96.80;;;35.10;;
59599;SDS011;61855;55.030;73.326;2022-07-21T04:00:27;80.15;;;29.05;;
59599;SDS011;61855;55.030;73.326;2022-07-21T04:02:56;78.32;;;29.27;;
59599;SDS011;61855;55.030;73.326;2022-07-21T04:05:23;49.38;;;21.70;;
59599;SDS011;61855;55.030;73.326;2022-07-21T04:07:50;30.42;;;17.80;;
59599;SDS011;61855;55.030;73.326;2022-07-21T04:10:22;25.58;;;16.73;;
59599;SDS011;61855;55.030;73.326;2022-07-21T04:12:50;23.35;;;15.82;;
59599;SDS011;61855;55.030;73.326;2022-07-21T04:15:17;22.85;;;16.88;;
59599;SDS011;61855;55.030;73.326;2022-07-21T04:17:43;20.73;;;14.60;;
59599;SDS011;61855;55.030;73.326;2022-07-21T04:20:10;28.75;;;15.88;;
59599;SDS011;61855;55.030;73.326;2022-07-21T04:22:37;24.23;;;15.15;;
59599;SDS011;61855;55.030;73.326;2022-07-21T04:25:08;23.40;;;12.73;;
59599;SDS011;61855;55.030;73.326;2022-07-21T04:27:35;22.05;;;15.38;;
59599;SDS011;61855;55.030;73.326;2022-07-21T04:30:03;25.83;;;15.35;;
59599;SDS011;61855;55.030;73.326;2022-07-21T04:32:36;20.73;;;15.10;;
59599;SDS011;61855;55.030;73.326;2022-07-21T04:35:03;31.42;;;15.70;;
59599;SDS011;61855;55.030;73.326;2022-07-21T04:37:30;19.40;;;13.07;;
59599;SDS011;61855;55.030;73.326;2022-07-21T04:39:56;19.10;;;13.88;;
59599;SDS011;61855;55.030;73.326;2022-07-21T04:42:22;15.60;;;12.07;;
59599;SDS011;61855;55.030;73.326;2022-07-21T04:44:48;15.75;;;11.52;;
59599;SDS011;61855;55.030;73.326;2022-07-21T04:47:14;15.40;;;12.93;;
59599;SDS011;61855;55.030;73.326;2022-07-21T04:49:41;19.85;;;13.43;;
59599;SDS011;61855;55.030;73.326;2022-07-21T04:52:07;20.70;;;13.27;;
59599;SDS011;61855;55.030;73.326;2022-07-21T04:54:33;43.13;;;16.63;;
59599;SDS011;61855;55.030;73.326;2022-07-21T04:56:59;45.53;;;19.55;;
59599;SDS011;61855;55.030;73.326;2022-07-21T04:59:28;47.08;;;18.60;;
59599;SDS011;61855;55.030;73.326;2022-07-21T05:02:03;49.13;;;18.88;;
59599;SDS011;61855;55.030;73.326;2022-07-21T05:04:29;23.70;;;13.02;;
59599;SDS011;61855;55.030;73.326;2022-07-21T05:06:56;28.70;;;14.10;;
59599;SDS011;61855;55.030;73.326;2022-07-21T05:09:22;37.88;;;17.10;;
59599;SDS011;61855;55.030;73.326;2022-07-21T05:11:48;45.00;;;18.27;;
59599;SDS011;61855;55.030;73.326;2022-07-21T05:14:14;50.40;;;18.58;;
59599;SDS011;61855;55.030;73.326;2022-07-21T05:16:40;34.17;;;17.45;;
59599;SDS011;61855;55.030;73.326;2022-07-21T05:19:10;72.50;;;20.08;;
59599;SDS011;61855;55.030;73.326;2022-07-21T05:21:36;35.28;;;16.40;;
59599;SDS011;61855;55.030;73.326;2022-07-21T05:24:07;28.75;;;14.70;;
59599;SDS011;61855;55.030;73.326;2022-07-21T05:26:34;44.53;;;18.67;;
59599;SDS011;61855;55.030;73.326;2022-07-21T05:29:00;59.67;;;19.80;;
59599;SDS011;61855;55.030;73.326;2022-07-21T05:31:26;46.20;;;18.35;;
59599;SDS011;61855;55.030;73.326;2022-07-21T05:33:52;32.15;;;15.48;;
59599;SDS011;61855;55.030;73.326;2022-07-21T05:36:18;43.80;;;16.30;;
59599;SDS011;61855;55.030;73.326;2022-07-21T05:38:45;32.50;;;14.98;;
59599;SDS011;61855;55.030;73.326;2022-07-21T05:41:12;39.30;;;16.30;;
59599;SDS011;61855;55.030;73.326;2022-07-21T05:43:38;27.60;;;13.82;;
59599;SDS011;61855;55.030;73.326;2022-07-21T05:46:04;41.17;;;15.57;;
59599;SDS011;61855;55.030;73.326;2022-07-21T05:48:30;47.20;;;18.08;;
59599;SDS011;61855;55.030;73.326;2022-07-21T05:51:09;39.58;;;15.88;;
59599;SDS011;61855;55.030;73.326;2022-07-21T05:53:43;21.08;;;11.55;;
59599;SDS011;61855;55.030;73.326;2022-07-21T05:56:09;18.30;;;11.98;;
59599;SDS011;61855;55.030;73.326;2022-07-21T05:58:40;26.38;;;15.55;;
59599;SDS011;61855;55.030;73.326;2022-07-21T06:01:06;34.42;;;15.95;;
59599;SDS011;61855;55.030;73.326;2022-07-21T06:03:47;27.90;;;13.38;;
59599;SDS011;61855;55.030;73.326;2022-07-21T06:06:15;47.05;;;15.88;;
59599;SDS011;61855;55.030;73.326;2022-07-21T06:08:50;35.63;;;13.30;;
59599;SDS011;61855;55.030;73.326;2022-07-21T06:11:18;30.50;;;13.30;;
59599;SDS011;61855;55.030;73.326;2022-07-21T06:13:45;63.17;;;16.98;;
59599;SDS011;61855;55.030;73.326;2022-07-21T06:16:15;47.83;;;14.32;;
59599;SDS011;61855;55.030;73.326;2022-07-21T06:18:41;21.80;;;12.23;;
59599;SDS011;61855;55.030;73.326;2022-07-21T06:21:07;34.15;;;13.10;;
59599;SDS011;61855;55.030;73.326;2022-07-21T06:23:33;41.25;;;13.98;;
59599;SDS011;61855;55.030;73.326;2022-07-21T06:26:00;67.18;;;18.63;;
59599;SDS011;61855;55.030;73.326;2022-07-21T06:28:26;30.88;;;13.60;;
59599;SDS011;61855;55.030;73.326;2022-07-21T06:30:52;25.52;;;11.35;;
59599;SDS011;61855;55.030;73.326;2022-07-21T06:35:55;55.10;;;14.35;;
59599;SDS011;61855;55.030;73.326;2022-07-21T06:38:21;69.13;;;16.92;;
59599;SDS011;61855;55.030;73.326;2022-07-21T06:40:47;55.08;;;15.77;;
59599;SDS011;61855;55.030;73.326;2022-07-21T06:43:13;24.10;;;11.45;;
59599;SDS011;61855;55.030;73.326;2022-07-21T06:45:42;39.50;;;13.60;;
59599;SDS011;61855;55.030;73.326;2022-07-21T06:48:09;35.90;;;13.85;;
59599;SDS011;61855;55.030;73.326;2022-07-21T06:50:36;43.35;;;13.00;;
59599;SDS011;61855;55.030;73.326;2022-07-21T06:53:07;48.22;;;15.45;;
59599;SDS011;61855;55.030;73.326;2022-07-21T06:55:36;37.90;;;12.82;;
59599;SDS011;61855;55.030;73.326;2022-07-21T06:58:08;33.65;;;12.57;;
59599;SDS011;61855;55.030;73.326;2022-07-21T07:00:41;37.30;;;11.27;;
59599;SDS011;61855;55.030;73.326;2022-07-21T07:03:08;30.40;;;10.05;;
59599;SDS011;61855;55.030;73.326;2022-07-21T07:05:40;33.97;;;10.63;;
59599;SDS011;61855;55.030;73.326;2022-07-21T07:08:09;63.38;;;15.88;;
59599;SDS011;61855;55.030;73.326;2022-07-21T07:10:36;18.02;;;10.00;;
59599;SDS011;61855;55.030;73.326;2022-07-21T07:13:02;25.10;;;10.73;;
59599;SDS011;61855;55.030;73.326;2022-07-21T07:15:29;11.73;;;8.98;;
59599;SDS011;61855;55.030;73.326;2022-07-21T07:17:58;17.55;;;8.63;;
59599;SDS011;61855;55.030;73.326;2022-07-21T07:20:25;17.58;;;8.75;;
59599;SDS011;61855;55.030;73.326;2022-07-21T07:22:51;19.90;;;9.70;;
59599;SDS011;61855;55.030;73.326;2022-07-21T07:25:18;32.95;;;10.45;;
59599;SDS011;61855;55.030;73.326;2022-07-21T07:27:44;35.75;;;11.80;;
59599;SDS011;61855;55.030;73.326;2022-07-21T07:30:12;27.15;;;10.32;;
59599;SDS011;61855;55.030;73.326;2022-07-21T07:32:40;31.80;;;10.70;;
59599;SDS011;61855;55.030;73.326;2022-07-21T07:35:11;25.90;;;10.93;;
59599;SDS011;61855;55.030;73.326;2022-07-21T07:37:38;35.88;;;12.75;;
59599;SDS011;61855;55.030;73.326;2022-07-21T07:40:14;50.03;;;13.77;;
59599;SDS011;61855;55.030;73.326;2022-07-21T07:42:50;38.08;;;13.15;;
59599;SDS011;61855;55.030;73.326;2022-07-21T07:45:16;50.88;;;14.32;;
59599;SDS011;61855;55.030;73.326;2022-07-21T07:47:45;51.30;;;18.13;;
59599;SDS011;61855;55.030;73.326;2022-07-21T07:50:12;45.10;;;15.65;;
59599;SDS011;61855;55.030;73.326;2022-07-21T07:52:41;44.33;;;15.93;;
59599;SDS011;61855;55.030;73.326;2022-07-21T07:55:18;38.75;;;14.45;;
59599;SDS011;61855;55.030;73.326;2022-07-21T07:57:44;39.00;;;14.98;;
59599;SDS011;61855;55.030;73.326;2022-07-21T08:00:12;29.20;;;14.80;;
59599;SDS011;61855;55.030;73.326;2022-07-21T08:02:42;34.15;;;13.98;;
59599;SDS011;61855;55.030;73.326;2022-07-21T08:05:08;36.55;;;16.98;;
59599;SDS011;61855;55.030;73.326;2022-07-21T08:07:36;44.92;;;17.75;;
59599;SDS011;61855;55.030;73.326;2022-07-21T08:10:10;36.17;;;16.10;;
59599;SDS011;61855;55.030;73.326;2022-07-21T08:12:41;45.35;;;16.45;;
59599;SDS011;61855;55.030;73.326;2022-07-21T08:15:08;40.78;;;17.08;;
59599;SDS011;61855;55.030;73.326;2022-07-21T08:17:35;25.65;;;13.88;;
59599;SDS011;61855;55.030;73.326;2022-07-21T08:20:03;35.15;;;14.27;;
59599;SDS011;61855;55.030;73.326;2022-07-21T08:22:31;31.48;;;14.23;;
59599;SDS011;61855;55.030;73.326;2022-07-21T08:24:57;37.92;;;15.38;;
59599;SDS011;61855;55.030;73.326;2022-07-21T08:27:23;26.23;;;13.02;;
59599;SDS011;61855;55.030;73.326;2022-07-21T08:29:52;23.25;;;12.43;;
59599;SDS011;61855;55.030;73.326;2022-07-21T08:32:18;19.63;;;12.32;;
59599;SDS011;61855;55.030;73.326;2022-07-21T08:34:45;24.15;;;12.98;;
59599;SDS011;61855;55.030;73.326;2022-07-21T08:37:14;27.88;;;13.55;;
59599;SDS011;61855;55.030;73.326;2022-07-21T08:39:40;26.70;;;14.02;;
59599;SDS011;61855;55.030;73.326;2022-07-21T08:42:10;18.80;;;12.85;;
59599;SDS011;61855;55.030;73.326;2022-07-21T08:44:37;19.60;;;12.55;;
59599;SDS011;61855;55.030;73.326;2022-07-21T08:47:04;26.48;;;11.52;;
59599;SDS011;61855;55.030;73.326;2022-07-21T08:49:30;22.95;;;11.40;;
59599;SDS011;61855;55.030;73.326;2022-07-21T08:51:59;21.67;;;11.93;;
59599;SDS011;61855;55.030;73.326;2022-07-21T08:54:25;22.75;;;11.27;;
59599;SDS011;61855;55.030;73.326;2022-07-21T08:56:51;25.67;;;12.55;;
59599;SDS011;61855;55.030;73.326;2022-07-21T08:59:17;18.92;;;12.15;;
59599;SDS011;61855;55.030;73.326;2022-07-21T09:01:45;19.83;;;11.43;;
59599;SDS011;61855;55.030;73.326;2022-07-21T09:04:23;16.90;;;10.65;;
59599;SDS011;61855;55.030;73.326;2022-07-21T09:06:57;19.33;;;11.27;;
59599;SDS011;61855;55.030;73.326;2022-07-21T09:09:28;15.82;;;10.60;;
59599;SDS011;61855;55.030;73.326;2022-07-21T09:11:57;17.38;;;10.02;;
59599;SDS011;61855;55.030;73.326;2022-07-21T09:14:31;15.15;;;9.75;;
59599;SDS011;61855;55.030;73.326;2022-07-21T09:16:59;12.88;;;9.38;;
59599;SDS011;61855;55.030;73.326;2022-07-21T09:19:28;14.43;;;9.25;;
59599;SDS011;61855;55.030;73.326;2022-07-21T09:22:00;15.45;;;8.98;;
59599;SDS011;61855;55.030;73.326;2022-07-21T09:24:31;13.57;;;8.48;;
59599;SDS011;61855;55.030;73.326;2022-07-21T09:27:14;16.08;;;8.48;;
59599;SDS011;61855;55.030;73.326;2022-07-21T09:29:49;16.58;;;8.90;;
59599;SDS011;61855;55.030;73.326;2022-07-21T09:32:22;15.13;;;8.40;;
59599;SDS011;61855;55.030;73.326;2022-07-21T09:35:07;18.67;;;8.73;;
59599;SDS011;61855;55.030;73.326;2022-07-21T09:37:45;22.08;;;9.02;;
59599;SDS011;61855;55.030;73.326;2022-07-21T09:40:14;19.48;;;8.65;;
59599;SDS011;61855;55.030;73.326;2022-07-21T09:42:41;20.30;;;8.75;;
59599;SDS011;61855;55.030;73.326;2022-07-21T09:45:09;16.52;;;6.53;;
59599;SDS011;61855;55.030;73.326;2022-07-21T09:47:38;7.65;;;4.68;;
59599;SDS011;61855;55.030;73.326;2022-07-21T09:50:06;7.43;;;4.18;;
59599;SDS011;61855;55.030;73.326;2022-07-21T09:52:35;4.10;;;3.28;;
59599;SDS011;61855;55.030;73.326;2022-07-21T09:55:04;4.43;;;4.03;;
59599;SDS011;61855;55.030;73.326;2022-07-21T09:57:41;5.22;;;3.30;;
59599;SDS011;61855;55.030;73.326;2022-07-21T10:00:09;6.72;;;3.55;;
59599;SDS011;61855;55.030;73.326;2022-07-21T10:02:38;6.80;;;3.80;;
59599;SDS011;61855;55.030;73.326;2022-07-21T10:07:32;7.65;;;3.72;;
59599;SDS011;61855;55.030;73.326;2022-07-21T10:09:59;7.20;;;3.55;;
59599;SDS011;61855;55.030;73.326;2022-07-21T10:12:25;3.90;;;3.50;;
59599;SDS011;61855;55.030;73.326;2022-07-21T10:14:53;4.97;;;3.30;;
59599;SDS011;61855;55.030;73.326;2022-07-21T10:17:20;6.88;;;3.38;;
59599;SDS011;61855;55.030;73.326;2022-07-21T10:25:23;5.35;;;3.10;;
59599;SDS011;61855;55.030;73.326;2022-07-21T10:30:51;6.53;;;3.28;;
59599;SDS011;61855;55.030;73.326;2022-07-21T10:33:51;8.05;;;4.70;;
59599;SDS011;61855;55.030;73.326;2022-07-21T10:36:55;4.78;;;4.35;;
59599;SDS011;61855;55.030;73.326;2022-07-21T10:41:46;7.78;;;3.95;;
59599;SDS011;61855;55.030;73.326;2022-07-21T10:49:44;7.15;;;3.88;;
59599;SDS011;61855;55.030;73.326;2022-07-21T10:57:43;7.05;;;3.92;;
59599;SDS011;61855;55.030;73.326;2022-07-21T11:02:58;7.90;;;3.30;;
59599;SDS011;61855;55.030;73.326;2022-07-21T11:05:32;8.85;;;4.10;;
59599;SDS011;61855;55.030;73.326;2022-07-21T11:10:52;7.93;;;3.80;;
59599;SDS011;61855;55.030;73.326;2022-07-21T11:13:21;4.25;;;3.47;;
59599;SDS011;61855;55.030;73.326;2022-07-21T11:16:01;5.82;;;3.40;;
59599;SDS011;61855;55.030;73.326;2022-07-21T11:18:35;7.10;;;3.40;;
59599;SDS011;61855;55.030;73.326;2022-07-21T11:21:13;5.47;;;3.58;;
59599;SDS011;61855;55.030;73.326;2022-07-21T11:26:12;6.32;;;3.85;;
59599;SDS011;61855;55.030;73.326;2022-07-21T11:28:41;5.65;;;3.47;;
59599;SDS011;61855;55.030;73.326;2022-07-21T11:31:19;5.35;;;3.67;;
59599;SDS011;61855;55.030;73.326;2022-07-21T11:33:51;12.32;;;3.70;;
59599;SDS011;61855;55.030;73.326;2022-07-21T11:36:29;6.00;;;3.80;;
59599;SDS011;61855;55.030;73.326;2022-07-21T11:39:04;8.05;;;3.42;;
59599;SDS011;61855;55.030;73.326;2022-07-21T11:41:33;6.55;;;2.92;;
59599;SDS011;61855;55.030;73.326;2022-07-21T11:44:10;8.13;;;3.50;;
59599;SDS011;61855;55.030;73.326;2022-07-21T11:46:44;6.07;;;2.88;;
59599;SDS011;61855;55.030;73.326;2022-07-21T11:49:17;3.17;;;2.67;;
59599;SDS011;61855;55.030;73.326;2022-07-21T11:57:00;3.22;;;1.80;;
59599;SDS011;61855;55.030;73.326;2022-07-21T11:59:28;10.70;;;2.55;;
59599;SDS011;61855;55.030;73.326;2022-07-21T12:01:56;6.28;;;2.60;;
59599;SDS011;61855;55.030;73.326;2022-07-21T12:07:19;8.50;;;2.60;;
59599;SDS011;61855;55.030;73.326;2022-07-21T12:09:49;12.32;;;3.60;;
59599;SDS011;61855;55.030;73.326;2022-07-21T12:12:36;17.10;;;3.40;;
59599;SDS011;61855;55.030;73.326;2022-07-21T12:17:42;23.23;;;5.30;;
59599;SDS011;61855;55.030;73.326;2022-07-21T12:20:11;12.80;;;2.88;;
59599;SDS011;61855;55.030;73.326;2022-07-21T12:22:42;20.73;;;4.15;;
59599;SDS011;61855;55.030;73.326;2022-07-21T12:25:10;7.38;;;3.05;;
59599;SDS011;61855;55.030;73.326;2022-07-21T12:27:38;5.93;;;2.97;;
59599;SDS011;61855;55.030;73.326;2022-07-21T12:30:07;6.13;;;2.80;;
59599;SDS011;61855;55.030;73.326;2022-07-21T12:37:53;7.65;;;3.22;;
59599;SDS011;61855;55.030;73.326;2022-07-21T12:40:23;8.20;;;3.58;;
59599;SDS011;61855;55.030;73.326;2022-07-21T12:42:51;11.65;;;3.83;;
59599;SDS011;61855;55.030;73.326;2022-07-21T12:45:27;9.38;;;3.22;;
59599;SDS011;61855;55.030;73.326;2022-07-21T12:48:10;14.43;;;4.55;;
59599;SDS011;61855;55.030;73.326;2022-07-21T12:50:38;21.95;;;3.90;;
59599;SDS011;61855;55.030;73.326;2022-07-21T12:53:09;17.80;;;4.07;;
59599;SDS011;61855;55.030;73.326;2022-07-21T12:55:36;6.35;;;3.13;;
59599;SDS011;61855;55.030;73.326;2022-07-21T12:58:03;2.15;;;1.98;;
59599;SDS011;61855;55.030;73.326;2022-07-21T13:00:31;7.07;;;2.15;;
59599;SDS011;61855;55.030;73.326;2022-07-21T13:02:57;5.82;;;2.63;;
59599;SDS011;61855;55.030;73.326;2022-07-21T13:05:24;5.28;;;2.28;;
59599;SDS011;61855;55.030;73.326;2022-07-21T13:07:51;3.33;;;2.50;;
59599;SDS011;61855;55.030;73.326;2022-07-21T13:10:17;3.42;;;2.60;;
59599;SDS011;61855;55.030;73.326;2022-07-21T13:12:43;4.68;;;2.50;;
59599;SDS011;61855;55.030;73.326;2022-07-21T13:15:22;2.67;;;2.47;;
59599;SDS011;61855;55.030;73.326;2022-07-21T13:17:51;11.93;;;3.22;;
59599;SDS011;61855;55.030;73.326;2022-07-21T13:20:27;5.90;;;3.58;;
59599;SDS011;61855;55.030;73.326;2022-07-21T13:22:54;8.75;;;5.28;;
59599;SDS011;61855;55.030;73.326;2022-07-21T13:25:21;8.13;;;4.63;;
59599;SDS011;61855;55.030;73.326;2022-07-21T13:27:55;5.25;;;3.47;;
59599;SDS011;61855;55.030;73.326;2022-07-21T13:30:25;3.00;;;2.60;;
59599;SDS011;61855;55.030;73.326;2022-07-21T13:32:51;6.75;;;2.85;;
59599;SDS011;61855;55.030;73.326;2022-07-21T13:35:17;5.70;;;2.95;;
59599;SDS011;61855;55.030;73.326;2022-07-21T13:37:43;5.30;;;2.72;;
59599;SDS011;61855;55.030;73.326;2022-07-21T13:40:09;23.55;;;17.30;;
59599;SDS011;61855;55.030;73.326;2022-07-21T13:42:35;4.90;;;2.92;;
59599;SDS011;61855;55.030;73.326;2022-07-21T13:45:01;5.63;;;2.85;;
59599;SDS011;61855;55.030;73.326;2022-07-21T13:47:28;4.18;;;2.95;;
59599;SDS011;61855;55.030;73.326;2022-07-21T13:49:57;5.05;;;2.92;;
59599;SDS011;61855;55.030;73.326;2022-07-21T13:52:23;6.60;;;3.60;;
59599;SDS011;61855;55.030;73.326;2022-07-21T13:54:50;6.75;;;4.40;;
59599;SDS011;61855;55.030;73.326;2022-07-21T13:57:16;2.75;;;2.55;;
59599;SDS011;61855;55.030;73.326;2022-07-21T13:59:42;9.13;;;3.90;;
59599;SDS011;61855;55.030;73.326;2022-07-21T14:02:19;7.32;;;3.15;;
59599;SDS011;61855;55.030;73.326;2022-07-21T14:04:45;5.15;;;3.00;;
59599;SDS011;61855;55.030;73.326;2022-07-21T14:07:11;2.50;;;2.28;;
59599;SDS011;61855;55.030;73.326;2022-07-21T14:09:40;8.73;;;5.30;;
59599;SDS011;61855;55.030;73.326;2022-07-21T14:12:07;16.17;;;10.90;;
59599;SDS011;61855;55.030;73.326;2022-07-21T14:14:35;9.70;;;5.78;;
59599;SDS011;61855;55.030;73.326;2022-07-21T14:17:02;14.18;;;9.82;;
59599;SDS011;61855;55.030;73.326;2022-07-21T14:19:33;4.57;;;4.07;;
59599;SDS011;61855;55.030;73.326;2022-07-21T14:22:01;3.92;;;2.60;;
59599;SDS011;61855;55.030;73.326;2022-07-21T14:24:27;7.63;;;3.63;;
59599;SDS011;61855;55.030;73.326;2022-07-21T14:27:17;5.03;;;2.65;;
59599;SDS011;61855;55.030;73.326;2022-07-21T14:29:43;7.93;;;4.75;;
59599;SDS011;61855;55.030;73.326;2022-07-21T14:32:18;7.32;;;3.45;;
59599;SDS011;61855;55.030;73.326;2022-07-21T14:34:50;10.68;;;4.15;;
59599;SDS011;61855;55.030;73.326;2022-07-21T14:37:17;6.65;;;3.00;;
59599;SDS011;61855;55.030;73.326;2022-07-21T14:39:54;6.50;;;4.20;;
59599;SDS011;61855;55.030;73.326;2022-07-21T14:42:22;7.18;;;4.82;;
59599;SDS011;61855;55.030;73.326;2022-07-21T14:44:50;8.80;;;4.28;;
59599;SDS011;61855;55.030;73.326;2022-07-21T14:47:16;4.05;;;2.60;;
59599;SDS011;61855;55.030;73.326;2022-07-21T14:49:43;9.77;;;5.40;;
59599;SDS011;61855;55.030;73.326;2022-07-21T14:52:14;10.77;;;5.35;;
59599;SDS011;61855;55.030;73.326;2022-07-21T14:54:48;8.02;;;3.95;;
59599;SDS011;61855;55.030;73.326;2022-07-21T14:57:14;10.27;;;3.63;;
59599;SDS011;61855;55.030;73.326;2022-07-21T14:59:40;5.45;;;2.67;;
59599;SDS011;61855;55.030;73.326;2022-07-21T15:02:06;2.55;;;2.35;;
59599;SDS011;61855;55.030;73.326;2022-07-21T15:04:33;3.65;;;2.45;;
59599;SDS011;61855;55.030;73.326;2022-07-21T15:07:02;3.95;;;2.67;;
59599;SDS011;61855;55.030;73.326;2022-07-21T15:09:28;6.95;;;3.95;;
59599;SDS011;61855;55.030;73.326;2022-07-21T15:11:55;5.65;;;2.88;;
59599;SDS011;61855;55.030;73.326;2022-07-21T15:14:30;7.97;;;5.43;;
59599;SDS011;61855;55.030;73.326;2022-07-21T15:16:56;11.98;;;4.97;;
59599;SDS011;61855;55.030;73.326;2022-07-21T15:19:22;7.78;;;4.20;;